Time;durP1;ratioP1;P1;durP2;ratioP2;P2;SDS_P1;SDS_P2;PMS_P1;PMS_P2;Temp;Humidity;BMP_temperature;BMP_pressure;BME280_temperature;BME280_humidity;BME280_pressure;Samples;Min_cycle;Max_cycle;Signal;HPM_P1;HPM_P2
2021/12/23 00:00:22;;;;;;;15.57;2.55;;;;;;;-0.58;100.00;101243.25;4998720;28;20475;-67
2021/12/23 00:02:47;;;;;;;6.70;1.85;;;;;;;-0.60;100.00;101237.44;4992903;28;20026;-68
2021/12/23 00:05:13;;;;;;;7.40;2.22;;;;;;;-0.59;100.00;101236.34;5005291;28;20117;-67
2021/12/23 00:07:39;;;;;;;9.40;2.70;;;;;;;-0.67;100.00;101224.47;4995823;28;20042;-67
2021/12/23 00:10:07;;;;;;;3.88;2.58;;;;;;;-0.58;100.00;101230.78;4994372;28;20030;-68
2021/12/23 00:12:35;;;;;;;4.32;1.70;;;;;;;-0.53;100.00;101230.81;4996756;28;20076;-68
2021/12/23 00:15:03;;;;;;;11.68;3.58;;;;;;;-0.57;100.00;101223.66;4996438;28;20057;-67
2021/12/23 00:23:24;;;;;;;5.55;2.38;;;;;;;-0.67;100.00;101211.25;4996908;28;20169;-68
2021/12/23 00:25:29;;;;;;;11.88;2.78;;;;;;;-0.66;100.00;101204.13;4997294;28;20504;-68
2021/12/23 00:27:54;;;;;;;7.55;4.07;;;;;;;-0.69;100.00;101192.22;5007258;28;20169;-68
2021/12/23 00:30:20;;;;;;;2.72;1.67;;;;;;;-0.67;100.00;101195.38;5002340;28;20121;-67
2021/12/23 00:32:45;;;;;;;3.15;1.35;;;;;;;-0.63;100.00;101193.81;5005507;28;20030;-68
2021/12/23 00:35:11;;;;;;;5.32;1.50;;;;;;;-0.54;100.00;101189.53;5003668;28;20034;-68
2021/12/23 00:37:40;;;;;;;10.02;2.90;;;;;;;-0.68;100.00;101185.09;5010861;28;20462;-68
2021/12/23 00:40:09;;;;;;;3.10;2.10;;;;;;;-0.68;100.00;101191.19;5002693;28;20046;-67
2021/12/23 00:42:34;;;;;;;5.25;2.28;;;;;;;-0.60;100.00;101181.91;5012148;28;20049;-68
2021/12/23 00:45:00;;;;;;;2.38;1.95;;;;;;;-0.65;100.00;101176.63;5004812;28;20026;-65
2021/12/23 00:47:26;;;;;;;3.33;1.70;;;;;;;-0.64;100.00;101163.13;5010569;28;20092;-67
2021/12/23 00:49:51;;;;;;;7.80;3.05;;;;;;;-0.62;100.00;101155.72;5011288;28;20494;-67
2021/12/23 00:52:23;;;;;;;6.28;2.65;;;;;;;-0.62;100.00;101147.78;5001826;28;20045;-67
2021/12/23 00:54:49;;;;;;;9.90;2.88;;;;;;;-0.57;100.00;101137.22;4992210;28;20034;-67
2021/12/23 00:57:14;;;;;;;4.38;2.05;;;;;;;-0.51;100.00;101130.84;4996223;28;20113;-67
2021/12/23 00:59:40;;;;;;;6.07;2.40;;;;;;;-0.66;100.00;101136.19;5000060;28;20504;-66
2021/12/23 01:02:08;;;;;;;10.32;2.05;;;;;;;-0.68;100.00;101132.22;5009607;28;20037;-67
2021/12/23 01:04:34;;;;;;;5.20;2.50;;;;;;;-0.71;100.00;101133.53;5009920;28;20041;-67
2021/12/23 01:06:59;;;;;;;5.95;2.40;;;;;;;-0.61;100.00;101138.81;4999061;28;20106;-67
2021/12/23 01:09:24;;;;;;;7.13;2.80;;;;;;;-0.59;100.00;101134.03;4992827;28;20523;-66
2021/12/23 01:11:50;;;;;;;4.32;2.05;;;;;;;-0.63;100.00;101125.06;5010414;28;20041;-67
2021/12/23 01:19:23;;;;;;;3.75;2.17;;;;;;;-0.68;100.00;101098.66;4995104;28;20034;-68
2021/12/23 01:21:49;;;;;;;3.53;2.15;;;;;;;-0.47;100.00;101100.16;5008258;28;20029;-66
2021/12/23 01:24:15;;;;;;;3.10;1.80;;;;;;;-0.62;100.00;101105.47;5020377;28;20409;-67
2021/12/23 01:26:41;;;;;;;4.90;2.10;;;;;;;-0.63;100.00;101090.69;5031855;28;20031;-67
2021/12/23 01:29:07;;;;;;;9.02;2.35;;;;;;;-0.61;100.00;101074.56;5010757;28;20502;-68
2021/12/23 01:31:34;;;;;;;7.05;1.85;;;;;;;-0.60;100.00;101066.34;5008291;28;20033;-67
2021/12/23 01:34:02;;;;;;;4.68;2.05;;;;;;;-0.55;100.00;101073.47;5010175;28;20042;-67
2021/12/23 01:36:27;;;;;;;7.05;2.40;;;;;;;-0.46;100.00;101077.94;4992596;28;20035;-66
2021/12/23 01:38:53;;;;;;;6.75;3.40;;;;;;;-0.48;100.00;101093.28;4990441;28;20033;-66
2021/12/23 01:41:21;;;;;;;7.05;2.15;;;;;;;-0.36;100.00;101083.19;5027308;28;20046;-67
2021/12/23 01:43:46;;;;;;;6.45;2.83;;;;;;;-0.49;100.00;101097.00;5000164;28;20104;-67
2021/12/23 01:46:11;;;;;;;5.93;2.03;;;;;;;-0.49;100.00;101089.06;5004624;28;21020;-67
2021/12/23 01:48:39;;;;;;;3.15;2.63;;;;;;;-0.52;100.00;101096.75;5015980;28;20033;-67
2021/12/23 01:51:05;;;;;;;4.93;2.13;;;;;;;-0.45;100.00;101084.81;5001396;28;20046;-67
2021/12/23 01:53:31;;;;;;;4.50;2.03;;;;;;;-0.40;100.00;101082.16;4994007;28;20041;-67
2021/12/23 01:55:56;;;;;;;3.40;1.52;;;;;;;-0.54;100.00;101086.44;5018278;28;20088;-67
2021/12/23 01:58:22;;;;;;;3.88;1.92;;;;;;;-0.51;100.00;101085.09;5024401;28;20034;-67
2021/12/23 02:00:50;;;;;;;3.72;1.77;;;;;;;-0.44;100.00;101086.41;4996689;28;20034;-67
2021/12/23 02:03:16;;;;;;;7.40;1.50;;;;;;;-0.44;100.00;101090.88;5013608;28;20054;-67
2021/12/23 02:05:42;;;;;;;5.97;2.13;;;;;;;-0.46;100.00;101087.72;5016123;28;20037;-67
2021/12/23 02:08:09;;;;;;;6.68;2.45;;;;;;;-0.37;100.00;101076.31;5010099;28;20046;-67
2021/12/23 02:10:34;;;;;;;9.88;3.13;;;;;;;-0.48;100.00;101080.06;5010152;28;20037;-68
2021/12/23 02:13:00;;;;;;;5.15;1.70;;;;;;;-0.45;100.00;101068.16;5009111;28;20038;-68
2021/12/23 02:15:26;;;;;;;1.95;1.83;;;;;;;-0.42;100.00;101057.81;4991877;28;20034;-68
2021/12/23 02:17:52;;;;;;;4.72;1.95;;;;;;;-0.33;100.00;101058.81;5004356;28;20026;-68
2021/12/23 02:20:27;;;;;;;5.82;2.55;;;;;;;-0.43;100.00;101050.97;4989525;28;20121;-68
2021/12/23 02:22:53;;;;;;;5.55;2.33;;;;;;;-0.43;100.00;101042.22;5001067;28;20080;-67
2021/12/23 02:25:19;;;;;;;8.05;2.80;;;;;;;-0.44;100.00;101049.38;5012481;28;20021;-68
2021/12/23 02:27:46;;;;;;;4.82;2.58;;;;;;;-0.38;100.00;101039.56;5012918;28;20081;-68
2021/12/23 02:30:19;;;;;;;1.85;1.73;;;;;;;-0.40;100.00;101026.59;5012363;28;20061;-68
2021/12/23 02:32:46;;;;;;;8.63;2.90;;;;;;;-0.36;100.00;101027.66;5008855;28;20038;-66
2021/12/23 02:35:14;;;;;;;8.30;2.40;;;;;;;-0.29;100.00;101022.06;4992753;28;20030;-66
2021/12/23 02:37:40;;;;;;;3.90;1.80;;;;;;;-0.33;100.00;101021.81;5006499;28;20034;-67
2021/12/23 02:40:08;;;;;;;4.43;2.13;;;;;;;-0.36;100.00;101025.00;5018794;28;20038;-67
2021/12/23 02:42:34;;;;;;;1.65;1.40;;;;;;;-0.32;100.00;101039.25;5001033;28;21969;-68
2021/12/23 02:45:01;;;;;;;2.60;1.80;;;;;;;-0.37;100.00;101020.75;5011889;28;20037;-67
2021/12/23 02:47:26;;;;;;;4.28;2.80;;;;;;;-0.33;100.00;101023.69;5010116;28;20065;-67
2021/12/23 02:49:52;;;;;;;1.95;1.70;;;;;;;-0.31;100.00;101009.09;4994484;28;20132;-67
2021/12/23 02:52:17;;;;;;;7.68;2.40;;;;;;;-0.39;100.00;100995.66;5002937;28;20479;-67
2021/12/23 02:54:43;;;;;;;4.47;2.13;;;;;;;-0.38;100.00;100991.94;4990205;28;20038;-67
2021/12/23 02:57:08;;;;;;;13.10;2.47;;;;;;;-0.36;100.00;100987.97;5015011;28;20034;-67
2021/12/23 02:59:35;;;;;;;4.95;2.90;;;;;;;-0.32;100.00;100982.94;5020221;28;20116;-67
2021/12/23 03:02:01;;;;;;;3.28;1.75;;;;;;;-0.37;100.00;100970.50;5009550;28;20049;-67
2021/12/23 03:04:26;;;;;;;2.75;1.90;;;;;;;-0.33;100.00;100971.53;5016104;28;20392;-66
2021/12/23 03:06:56;;;;;;;5.75;2.83;;;;;;;-0.23;100.00;100971.47;5007270;28;20064;-67
2021/12/23 03:09:22;;;;;;;4.50;2.95;;;;;;;-0.34;100.00;100974.47;5000437;28;20038;-67
2021/12/23 03:11:47;;;;;;;3.90;2.25;;;;;;;-0.26;100.00;100971.25;5012449;28;20091;-66
2021/12/23 03:14:15;;;;;;;5.45;2.25;;;;;;;-0.29;100.00;100967.28;5005267;28;20037;-66
2021/12/23 03:16:41;;;;;;;9.98;2.38;;;;;;;-0.36;100.00;100972.09;5008881;28;20032;-66
2021/12/23 03:19:27;;;;;;;5.35;2.15;;;;;;;-0.30;100.00;100970.22;4998741;28;20030;-66
2021/12/23 03:21:52;;;;;;;2.50;1.60;;;;;;;-0.33;100.00;100960.19;4923428;29;20533;-66
2021/12/23 03:24:19;;;;;;;3.53;1.50;;;;;;;-0.31;100.00;100955.44;4928933;29;20046;-66
2021/12/23 03:26:48;;;;;;;4.75;2.28;;;;;;;-0.37;100.00;100944.06;4939391;29;20074;-66
2021/12/23 03:29:14;;;;;;;7.50;2.28;;;;;;;-0.25;100.00;100946.38;4916083;29;20221;-66
2021/12/23 03:31:40;;;;;;;9.80;2.45;;;;;;;-0.29;100.00;100922.31;4929699;29;20453;-67
2021/12/23 03:34:06;;;;;;;5.32;2.85;;;;;;;-0.23;100.00;100931.00;4926206;29;20063;-66
2021/12/23 03:36:32;;;;;;;3.90;2.15;;;;;;;-0.29;100.00;100924.97;4929446;29;20032;-67
2021/12/23 03:38:57;;;;;;;5.38;2.38;;;;;;;-0.24;100.00;100919.66;4919343;29;20035;-68
2021/12/23 03:41:25;;;;;;;4.03;2.60;;;;;;;-0.25;100.00;100909.31;4934762;29;20135;-67
2021/12/23 03:43:51;;;;;;;6.03;1.95;;;;;;;-0.30;100.00;100912.03;4921122;29;20406;-66
2021/12/23 03:46:16;;;;;;;4.05;2.22;;;;;;;-0.26;100.00;100905.91;4931997;29;20112;-67
2021/12/23 03:48:42;;;;;;;8.18;2.83;;;;;;;-0.28;100.00;100897.47;4932756;29;20508;-66
2021/12/23 03:51:07;;;;;;;12.18;3.15;;;;;;;-0.27;100.00;100893.75;4931025;29;20179;-67
2021/12/23 03:53:33;;;;;;;6.15;2.42;;;;;;;-0.33;100.00;100896.72;4928073;29;20044;-67
2021/12/23 03:55:58;;;;;;;3.47;2.40;;;;;;;-0.23;100.00;100891.31;4932689;29;20544;-66
2021/12/23 03:58:26;;;;;;;8.00;3.10;;;;;;;-0.33;100.00;100876.34;4951101;28;20054;-66
2021/12/23 04:00:52;;;;;;;6.18;2.53;;;;;;;-0.23;100.00;100873.59;4996120;28;20479;-67
2021/12/23 04:03:17;;;;;;;5.57;3.08;;;;;;;-0.33;100.00;100884.25;5022574;28;20113;-66
2021/12/23 04:05:43;;;;;;;4.25;2.50;;;;;;;-0.34;100.00;100873.97;5025962;28;20042;-67
2021/12/23 04:08:09;;;;;;;7.65;2.63;;;;;;;-0.34;100.00;100871.31;5000350;28;20104;-66
2021/12/23 04:10:35;;;;;;;4.68;1.80;;;;;;;-0.24;100.00;100869.41;5009301;28;20037;-66
2021/12/23 04:13:01;;;;;;;7.00;2.30;;;;;;;-0.19;100.00;100871.19;5014218;28;20041;-66
2021/12/23 04:15:26;;;;;;;4.55;2.72;;;;;;;-0.32;100.00;100859.41;5006112;28;20034;-66
2021/12/23 04:17:52;;;;;;;5.57;2.97;;;;;;;-0.26;100.00;100846.94;4997344;28;20041;-66
2021/12/23 04:20:21;;;;;;;4.60;2.78;;;;;;;-0.33;100.00;100841.94;5009655;28;20065;-68
2021/12/23 04:22:51;;;;;;;4.95;2.72;;;;;;;-0.32;100.00;100827.66;5011027;28;20402;-68
2021/12/23 04:25:19;;;;;;;4.80;2.72;;;;;;;-0.34;100.00;100827.16;5003107;28;20068;-68
2021/12/23 04:27:46;;;;;;;6.38;2.70;;;;;;;-0.34;100.00;100823.72;5016834;28;20042;-67
2021/12/23 04:30:13;;;;;;;8.75;3.22;;;;;;;-0.28;100.00;100820.75;5011456;28;20049;-68
2021/12/23 04:32:40;;;;;;;10.00;3.63;;;;;;;-0.27;100.00;100821.56;5013292;28;20085;-68
2021/12/23 04:35:06;;;;;;;7.05;3.78;;;;;;;-0.30;100.00;100822.09;5016225;28;20038;-68
2021/12/23 04:37:32;;;;;;;6.32;2.83;;;;;;;-0.28;100.00;100822.59;4992578;28;20045;-68
2021/12/23 04:39:57;;;;;;;3.33;1.85;;;;;;;-0.15;100.00;100814.81;4995693;28;20022;-68
2021/12/23 04:42:23;;;;;;;6.00;3.72;;;;;;;-0.24;100.00;100818.34;5023198;28;20048;-68
2021/12/23 04:44:48;;;;;;;6.50;2.75;;;;;;;-0.25;100.00;100820.19;5016310;28;20037;-68
2021/12/23 04:47:17;;;;;;;12.88;2.90;;;;;;;-0.27;100.00;100822.31;5005451;28;20026;-67
2021/12/23 04:49:42;;;;;;;9.48;2.97;;;;;;;-0.20;100.00;100822.00;5007890;28;20127;-67
2021/12/23 04:52:07;;;;;;;6.10;2.47;;;;;;;-0.27;100.00;100824.97;5017196;28;20641;-67
2021/12/23 04:54:33;;;;;;;8.70;2.72;;;;;;;-0.21;100.00;100815.91;5002683;28;20112;-68
2021/12/23 04:56:58;;;;;;;9.57;2.90;;;;;;;-0.11;100.00;100815.84;5027850;28;20030;-67
2021/12/23 04:59:24;;;;;;;6.13;3.08;;;;;;;-0.16;100.00;100802.66;5016918;28;20113;-67
2021/12/23 05:01:50;;;;;;;7.55;2.38;;;;;;;-0.28;100.00;100777.66;5001144;28;20037;-67
2021/12/23 05:04:16;;;;;;;8.73;3.13;;;;;;;-0.20;100.00;100769.91;4999888;28;20041;-67
2021/12/23 05:06:41;;;;;;;4.80;2.35;;;;;;;-0.24;100.00;100771.53;5000578;28;20034;-68
2021/12/23 05:09:07;;;;;;;3.17;1.88;;;;;;;-0.25;100.00;100777.88;5007117;28;20514;-67
2021/12/23 05:11:33;;;;;;;3.90;2.88;;;;;;;-0.07;100.00;100768.44;4995449;28;20388;-67
2021/12/23 05:13:58;;;;;;;4.57;2.72;;;;;;;-0.23;100.00;100759.88;4992097;28;20042;-67
2021/12/23 05:16:23;;;;;;;5.57;1.98;;;;;;;-0.16;100.00;100757.69;5002079;28;20030;-68
2021/12/23 05:18:49;;;;;;;5.25;3.05;;;;;;;-0.18;100.00;100756.38;5003373;28;20034;-67
2021/12/23 05:21:14;;;;;;;3.38;2.03;;;;;;;-0.23;100.00;100765.16;4991578;28;20026;-67
2021/12/23 05:23:40;;;;;;;5.30;2.58;;;;;;;-0.21;100.00;100767.50;5002355;28;20038;-67
2021/12/23 05:26:07;;;;;;;10.18;2.50;;;;;;;-0.16;100.00;100762.97;5007436;28;20061;-67
2021/12/23 05:28:34;;;;;;;11.68;3.15;;;;;;;0.02;100.00;100750.84;5014654;28;20038;-67
2021/12/23 05:31:00;;;;;;;4.38;3.17;;;;;;;-0.14;100.00;100721.16;5001933;28;20417;-67
2021/12/23 05:33:26;;;;;;;10.50;3.00;;;;;;;0.00;100.00;100724.69;5009442;28;20430;-67
2021/12/23 05:35:51;;;;;;;5.95;2.53;;;;;;;-0.14;100.00;100707.13;5017965;28;20021;-67
2021/12/23 05:38:17;;;;;;;3.53;2.08;;;;;;;0.02;100.00;100687.34;5021188;28;20482;-67
2021/12/23 05:40:42;;;;;;;9.45;3.30;;;;;;;-0.07;100.00;100695.13;5000285;28;20038;-67
2021/12/23 05:43:10;;;;;;;7.22;3.60;;;;;;;-0.18;100.00;100700.84;5011990;28;20635;-68
2021/12/23 05:45:36;;;;;;;4.05;2.85;;;;;;;-0.16;100.00;100688.13;4999462;28;20038;-67
2021/12/23 05:48:02;;;;;;;5.35;3.25;;;;;;;-0.12;100.00;100665.31;5010957;28;20040;-67
2021/12/23 05:50:27;;;;;;;4.97;2.25;;;;;;;-0.05;100.00;100661.25;5016425;28;20033;-67
2021/12/23 05:52:53;;;;;;;7.38;2.17;;;;;;;0.01;100.00;100669.91;4995760;28;20045;-68
2021/12/23 05:55:19;;;;;;;9.32;4.00;;;;;;;-0.06;100.00;100667.59;4991328;28;20781;-68
2021/12/23 05:57:45;;;;;;;7.93;2.60;;;;;;;-0.10;100.00;100673.75;5016479;28;20053;-68
2021/12/23 06:00:24;;;;;;;4.90;2.78;;;;;;;-0.02;100.00;100667.84;4998306;28;20088;-68
2021/12/23 06:02:50;;;;;;;8.23;3.70;;;;;;;-0.07;100.00;100652.81;5018536;28;20040;-67
2021/12/23 06:05:17;;;;;;;4.85;2.28;;;;;;;-0.06;100.00;100640.38;4998383;28;20034;-67
2021/12/23 06:07:43;;;;;;;5.43;2.08;;;;;;;-0.15;100.00;100642.84;5005125;28;20844;-67
2021/12/23 06:10:14;;;;;;;7.68;3.08;;;;;;;-0.14;100.00;100656.88;5010218;28;20121;-66
2021/12/23 06:12:40;;;;;;;9.90;3.33;;;;;;;0.00;100.00;100649.81;5006494;28;20104;-68
2021/12/23 06:15:07;;;;;;;3.92;1.85;;;;;;;-0.03;100.00;100637.16;5010545;28;20685;-67
2021/12/23 06:17:33;;;;;;;6.05;2.97;;;;;;;-0.16;100.00;100629.91;4993682;28;20125;-67
2021/12/23 06:19:59;;;;;;;7.28;2.55;;;;;;;-0.15;100.00;100634.13;4995058;28;20038;-67
2021/12/23 06:22:25;;;;;;;5.45;3.20;;;;;;;0.01;100.00;100616.97;4990784;28;20070;-67
2021/12/23 06:24:50;;;;;;;6.05;2.55;;;;;;;-0.04;100.00;100609.13;4993519;28;20026;-67
2021/12/23 06:27:18;;;;;;;3.42;1.48;;;;;;;-0.06;100.00;100606.75;5008480;28;20037;-67
2021/12/23 06:29:44;;;;;;;3.97;2.70;;;;;;;-0.07;100.00;100593.81;5000862;28;20030;-66
2021/12/23 06:32:11;;;;;;;5.45;2.33;;;;;;;-0.04;100.00;100594.00;4993354;28;20034;-67
2021/12/23 06:34:37;;;;;;;13.48;3.58;;;;;;;0.03;100.00;100574.34;5003348;28;20045;-67
2021/12/23 06:37:04;;;;;;;4.72;2.55;;;;;;;0.05;100.00;100572.22;5005828;28;20034;-67
2021/12/23 06:39:31;;;;;;;5.32;2.53;;;;;;;0.02;100.00;100572.78;5003202;28;20513;-67
2021/12/23 06:41:57;;;;;;;2.80;1.98;;;;;;;0.02;100.00;100555.03;5006362;28;20034;-67
2021/12/23 06:44:23;;;;;;;2.90;1.73;;;;;;;0.04;100.00;100547.59;5010215;28;20033;-68
2021/12/23 06:46:51;;;;;;;5.15;2.10;;;;;;;0.06;100.00;100539.41;5024614;28;20060;-68
2021/12/23 06:49:17;;;;;;;4.00;2.38;;;;;;;0.08;100.00;100547.84;5030309;28;20045;-67
2021/12/23 06:51:43;;;;;;;6.97;2.30;;;;;;;0.04;100.00;100547.59;4993198;28;20046;-67
2021/12/23 06:54:09;;;;;;;7.68;3.08;;;;;;;-0.02;100.00;100536.31;4991546;28;20053;-67
2021/12/23 06:56:34;;;;;;;4.88;2.92;;;;;;;0.08;100.00;100547.84;5005498;28;20061;-67
2021/12/23 06:59:00;;;;;;;3.20;2.22;;;;;;;-0.02;100.00;100556.72;5017355;28;20071;-67
2021/12/23 07:01:26;;;;;;;5.93;2.65;;;;;;;0.11;100.00;100557.84;4995579;28;20029;-67
2021/12/23 07:06:37;;;;;;;7.35;2.60;;;;;;;0.11;100.00;100536.66;4989983;28;20559;-67
2021/12/23 07:09:05;;;;;;;3.33;1.65;;;;;;;0.11;100.00;100534.00;4989861;28;20042;-67
2021/12/23 07:11:33;;;;;;;6.45;1.98;;;;;;;-0.03;100.00;100516.22;5015275;28;20034;-68
2021/12/23 07:13:59;;;;;;;2.20;1.73;;;;;;;-0.03;100.00;100516.22;5026653;28;20046;-67
2021/12/23 07:16:25;;;;;;;4.50;2.55;;;;;;;0.08;100.00;100511.53;5010162;28;20037;-67
2021/12/23 07:18:53;;;;;;;7.05;2.72;;;;;;;-0.02;100.00;100501.91;5028417;28;20033;-67
2021/12/23 07:21:18;;;;;;;10.93;3.63;;;;;;;0.02;100.00;100485.47;5005346;28;20045;-67
2021/12/23 07:23:44;;;;;;;3.17;2.42;;;;;;;0.00;100.00;100478.59;5006254;28;20038;-67
2021/12/23 07:26:09;;;;;;;3.08;2.00;;;;;;;0.12;100.00;100491.38;5008653;28;20060;-67
2021/12/23 07:28:35;;;;;;;3.78;2.78;;;;;;;0.17;100.00;100483.38;4993535;28;21121;-67
2021/12/23 07:31:01;;;;;;;12.27;2.85;;;;;;;0.04;100.00;100492.03;5015628;28;20032;-68
2021/12/23 07:33:26;;;;;;;9.15;2.70;;;;;;;-0.01;100.00;100487.63;4994895;28;20121;-68
2021/12/23 07:35:51;;;;;;;6.55;2.83;;;;;;;0.06;100.00;100486.47;4996828;28;20049;-68
2021/12/23 07:38:17;;;;;;;2.75;2.15;;;;;;;0.02;100.00;100475.66;4994072;28;20039;-67
2021/12/23 07:40:43;;;;;;;4.72;3.40;;;;;;;0.16;100.00;100492.38;5000534;28;20034;-67
2021/12/23 07:45:53;;;;;;;3.60;2.25;;;;;;;0.10;100.00;100504.09;5021645;28;20037;-67
2021/12/23 07:48:19;;;;;;;6.35;2.70;;;;;;;0.15;100.00;100516.47;5032087;28;20126;-67
2021/12/23 07:50:44;;;;;;;5.95;2.55;;;;;;;0.10;100.00;100519.22;5003157;28;20570;-67
2021/12/23 07:53:09;;;;;;;6.07;3.22;;;;;;;0.23;100.00;100523.78;4997188;28;20495;-67
2021/12/23 07:55:38;;;;;;;5.88;2.72;;;;;;;0.15;100.00;100525.22;5001228;28;20022;-67
2021/12/23 07:58:03;;;;;;;5.13;2.85;;;;;;;0.14;100.00;100528.13;5013163;28;20402;-67
2021/12/23 08:00:29;;;;;;;3.45;2.38;;;;;;;0.13;100.00;100521.28;4995109;28;20033;-67
2021/12/23 08:02:55;;;;;;;4.85;2.75;;;;;;;0.14;100.00;100538.72;5011186;28;20657;-68
2021/12/23 08:05:21;;;;;;;6.80;3.70;;;;;;;0.15;100.00;100532.38;5023713;28;20091;-67
2021/12/23 08:07:46;;;;;;;5.38;2.58;;;;;;;0.15;100.00;100545.59;5009292;28;20117;-67
2021/12/23 08:10:12;;;;;;;5.20;2.53;;;;;;;0.14;100.00;100536.06;4996182;28;20068;-67
2021/12/23 08:12:37;;;;;;;8.35;2.88;;;;;;;0.17;100.00;100535.50;5010795;28;20033;-67
2021/12/23 08:15:03;;;;;;;5.82;3.20;;;;;;;0.18;100.00;100545.00;5005853;28;20418;-67
2021/12/23 08:17:29;;;;;;;3.83;2.13;;;;;;;0.16;100.00;100549.81;4997087;28;20040;-67
2021/12/23 08:19:54;;;;;;;6.65;3.17;;;;;;;0.18;100.00;100550.31;5008079;28;20072;-67
2021/12/23 08:22:19;;;;;;;8.38;3.13;;;;;;;0.32;100.00;100540.56;4999623;28;20048;-68
2021/12/23 08:24:45;;;;;;;10.32;3.28;;;;;;;0.26;100.00;100536.41;5007034;28;20045;-67
2021/12/23 08:27:10;;;;;;;11.48;3.47;;;;;;;0.22;100.00;100538.06;4993924;28;20044;-67
2021/12/23 08:29:37;;;;;;;3.00;2.40;;;;;;;0.43;100.00;100521.56;4999534;28;20120;-68
2021/12/23 08:32:03;;;;;;;10.88;2.97;;;;;;;0.36;100.00;100523.81;5007742;28;20034;-68
2021/12/23 08:34:29;;;;;;;5.75;2.55;;;;;;;0.23;100.00;100521.13;5000381;28;20037;-67
2021/12/23 08:36:54;;;;;;;6.50;3.55;;;;;;;0.27;100.00;100527.41;4998419;28;20034;-68
2021/12/23 08:39:20;;;;;;;7.50;3.10;;;;;;;0.24;100.00;100525.31;5001877;28;20507;-67
2021/12/23 08:41:46;;;;;;;4.72;2.75;;;;;;;0.26;100.00;100510.72;5001334;28;20105;-67
2021/12/23 08:44:12;;;;;;;7.10;2.95;;;;;;;0.36;100.00;100492.03;5005940;28;20058;-68
2021/12/23 08:46:38;;;;;;;6.13;2.95;;;;;;;0.44;100.00;100472.84;5003994;28;20437;-67
2021/12/23 08:49:05;;;;;;;4.75;2.42;;;;;;;0.33;100.00;100475.97;5002547;28;20042;-68
2021/12/23 08:51:33;;;;;;;2.85;2.28;;;;;;;0.32;100.00;100485.75;5005835;28;20104;-67
2021/12/23 08:53:59;;;;;;;4.72;2.65;;;;;;;0.38;100.00;100465.28;5012338;28;20046;-66
2021/12/23 08:56:24;;;;;;;3.13;2.40;;;;;;;0.32;100.00;100463.78;5007601;28;20026;-67
2021/12/23 08:58:50;;;;;;;5.68;3.28;;;;;;;0.35;100.00;100463.97;5008975;28;20548;-67
2021/12/23 09:01:16;;;;;;;5.25;3.05;;;;;;;0.30;100.00;100472.03;5001921;28;20045;-68
2021/12/23 09:03:41;;;;;;;7.95;3.45;;;;;;;0.36;100.00;100465.56;5007009;28;20033;-67
2021/12/23 09:06:07;;;;;;;5.10;3.22;;;;;;;0.46;100.00;100464.59;5006760;28;20030;-68
2021/12/23 09:08:33;;;;;;;13.18;4.60;;;;;;;0.41;100.00;100451.44;5002234;28;20073;-68
2021/12/23 09:10:59;;;;;;;7.97;4.07;;;;;;;0.43;100.00;100443.97;5001081;28;20026;-67
2021/12/23 09:13:27;;;;;;;5.22;3.13;;;;;;;0.49;100.00;100453.41;5005494;28;20050;-68
2021/12/23 09:15:53;;;;;;;4.18;2.38;;;;;;;0.57;100.00;100447.44;5002793;28;20029;-67
2021/12/23 09:18:20;;;;;;;8.15;3.28;;;;;;;0.54;100.00;100451.44;4990925;28;20483;-67
2021/12/23 09:20:47;;;;;;;8.95;3.38;;;;;;;0.55;100.00;100449.59;5004495;28;20042;-67
2021/12/23 09:23:13;;;;;;;7.65;2.38;;;;;;;0.73;100.00;100436.28;5000619;28;20046;-67
2021/12/23 09:25:39;;;;;;;12.52;3.38;;;;;;;0.71;100.00;100446.38;4998924;28;20390;-68
2021/12/23 09:33:26;;;;;;;9.02;2.97;;;;;;;0.85;100.00;100415.34;4995131;28;20034;-68
2021/12/23 09:35:52;;;;;;;7.50;3.00;;;;;;;0.67;100.00;100426.06;5004091;28;20036;-68
2021/12/23 09:38:25;;;;;;;6.70;3.70;;;;;;;0.69;100.00;100411.44;5005952;28;20120;-67
2021/12/23 09:40:51;;;;;;;5.70;2.80;;;;;;;0.75;100.00;100417.44;5000124;28;20038;-67
2021/12/23 09:43:21;;;;;;;4.88;2.78;;;;;;;0.82;100.00;100401.91;5001469;28;20061;-67
2021/12/23 09:45:47;;;;;;;9.30;2.90;;;;;;;0.81;100.00;100405.66;5007880;28;20489;-67
2021/12/23 09:48:14;;;;;;;4.43;2.80;;;;;;;0.80;100.00;100417.31;5003384;28;20044;-67
2021/12/23 09:50:41;;;;;;;7.45;2.60;;;;;;;0.86;100.00;100392.28;4996910;28;20050;-67
2021/12/23 09:53:07;;;;;;;5.57;2.97;;;;;;;0.87;100.00;100399.19;5005642;28;20091;-68
2021/12/23 09:55:36;;;;;;;3.40;2.38;;;;;;;0.93;100.00;100397.19;5002175;28;20394;-68
2021/12/23 09:58:04;;;;;;;7.75;2.40;;;;;;;0.93;100.00;100382.84;5002054;28;20038;-68
2021/12/23 10:00:39;;;;;;;6.50;3.58;;;;;;;0.97;100.00;100380.38;5057085;28;20824;-68
2021/12/23 10:03:07;;;;;;;8.43;3.38;;;;;;;0.92;100.00;100377.84;5037496;28;20386;-68
2021/12/23 10:05:34;;;;;;;5.63;3.08;;;;;;;0.94;100.00;100381.00;5042244;28;20125;-68
2021/12/23 10:08:01;;;;;;;6.47;2.88;;;;;;;1.05;100.00;100365.66;5046583;28;20056;-68
2021/12/23 10:10:39;;;;;;;7.47;4.07;;;;;;;1.04;100.00;100367.53;5045252;28;20067;-68
2021/12/23 10:38:07;;;;;;;7.80;2.45;;;;;;;1.21;100.00;100253.69;5044871;28;20040;-67
2021/12/23 10:40:34;;;;;;;8.15;2.50;;;;;;;1.19;100.00;100244.44;5041533;28;20383;-68
2021/12/23 10:42:59;;;;;;;8.30;2.67;;;;;;;1.19;100.00;100229.34;5043863;28;20037;-67
2021/12/23 10:45:41;;;;;;;7.20;3.10;;;;;;;1.20;100.00;100214.97;5045025;28;20502;-68
2021/12/23 10:48:10;;;;;;;6.28;3.38;;;;;;;1.31;100.00;100220.81;5045091;28;20041;-69
2021/12/23 10:50:42;;;;;;;4.30;2.85;;;;;;;1.32;100.00;100215.22;5044636;28;20167;-68
2021/12/23 10:53:14;;;;;;;6.57;2.17;;;;;;;1.28;99.97;100192.28;5042986;28;20067;-68
2021/12/23 10:58:24;;;;;;;5.38;2.20;;;;;;;1.24;100.00;100209.88;5038498;28;19920;-68
2021/12/23 11:00:53;;;;;;;5.13;2.60;;;;;;;1.23;100.00;100187.09;5031602;28;20033;-68
2021/12/23 11:08:59;;;;;;;7.20;3.08;;;;;;;1.23;100.00;100190.53;5029417;28;20056;-68
2021/12/23 11:41:36;;;;;;;6.53;3.50;;;;;;;1.45;100.00;100171.91;5018524;28;20045;-67
2021/12/23 11:44:04;;;;;;;10.77;2.97;;;;;;;1.30;100.00;100156.41;5026413;28;20461;-68
2021/12/23 11:46:41;;;;;;;8.13;4.35;;;;;;;1.22;100.00;100156.38;5024532;28;20038;-67
2021/12/23 11:49:09;;;;;;;4.43;2.78;;;;;;;1.21;100.00;100152.94;5022180;28;20657;-68
2021/12/23 11:54:11;;;;;;;6.22;2.90;;;;;;;1.39;100.00;100143.97;5016491;28;20107;-68
2021/12/23 11:56:43;;;;;;;9.23;3.33;;;;;;;1.38;100.00;100141.59;5018217;28;20037;-68
2021/12/23 11:59:10;;;;;;;;;;;;;;;1.45;100.00;100134.78;5017599;28;20033;-68
2021/12/23 12:01:53;;;;;;;5.30;2.45;;;;;;;1.35;100.00;100123.66;5018314;28;19932;-69
2021/12/23 12:04:30;;;;;;;7.80;2.85;;;;;;;1.54;100.00;100119.69;5015728;23;20064;-69
2021/12/23 12:06:57;;;;;;;5.40;3.67;;;;;;;1.38;100.00;100120.41;5008334;28;20038;-66
2021/12/23 12:09:31;;;;;;;6.57;3.25;;;;;;;1.48;100.00;100120.13;5006109;28;20034;-67
2021/12/23 12:11:59;;;;;;;5.53;2.75;;;;;;;1.38;100.00;100105.28;5001693;28;20057;-66
2021/12/23 12:14:38;;;;;;;5.15;3.03;;;;;;;1.39;100.00;100112.16;5006158;28;20136;-67
2021/12/23 12:17:25;;;;;;;6.55;2.72;;;;;;;1.54;100.00;100095.81;5006277;28;20042;-66
2021/12/23 12:20:03;;;;;;;6.75;3.25;;;;;;;1.48;100.00;100096.25;5003833;28;20034;-67
2021/12/23 12:22:50;;;;;;;5.35;2.67;;;;;;;1.53;100.00;100088.94;5002177;28;20165;-67
2021/12/23 12:25:25;;;;;;;6.40;2.83;;;;;;;1.57;100.00;100076.63;5006636;28;20441;-66
2021/12/23 12:27:56;;;;;;;5.95;2.65;;;;;;;1.48;100.00;100075.03;5008255;28;20029;-67
2021/12/23 12:30:40;;;;;;;;;;;;;;;1.46;100.00;100064.75;5011117;28;20026;-68
2021/12/23 12:33:23;;;;;;;6.60;3.00;;;;;;;1.54;100.00;100063.19;5010241;28;19913;-67
2021/12/23 12:35:58;;;;;;;5.53;3.40;;;;;;;1.49;100.00;100050.84;5011649;28;20035;-67
2021/12/23 12:38:27;;;;;;;5.90;3.20;;;;;;;1.49;100.00;100028.88;5003784;28;20125;-68
2021/12/23 12:41:05;;;;;;;6.25;3.17;;;;;;;1.60;100.00;100027.47;5007125;28;20786;-68
2021/12/23 12:46:10;;;;;;;5.53;2.90;;;;;;;1.59;100.00;100020.59;5009533;28;20180;-69
2021/12/23 12:48:57;;;;;;;8.85;3.45;;;;;;;1.70;100.00;100027.94;5006597;28;20033;-68